Hauptseite
METAR-TAF:

METAR-TAF

Flughäfen :

Goeree Le, Niederlande

Bohrplattform

Breite: 51-55-33N, Länge: 3-40-12E, Höhe: 19 m

Beobachtung

Neuester Wetterbericht von vor 36 Minuten, um 12:25 UTC
Wind 14 kt aus Süd/Südwest
Temperatur 5°C
Luftfeuchtigkeit 87%
Luftdruck 999 hPa
Sichtweite 10 km oder mehr

METAR: EHSC 201225Z AUTO 20014KT 9999 ///////// 05/03 Q0999 W06/H10

Zeit: 14:01 (13:01 UTC)


TAF: fehlend

Wetterbeobachtungen und Prognosen von mehr als 4000 Flughäfen (METAR und TAF Bericht).

Die verfügbaren Stationen werden durch gelbe und rote Markierungen auf der Karte dargestellt.

Führen Sie die Maus auf sie, um den Namen der Station zu sehen.

Darauf klicken, um die Beobachtung von Wetterbeobachtungen und Prognosen zu sehen.

Um die Karte zu ändern : klicken Sie auf den grünen Tasten mit einem schwarzen Kreuz Zum Vergrößern, auf den grünen Button mit einem Gedankenstrich zu verkleinern, oder auf die grünen Pfeile für benachbarte Karten.


METAR-TAF: